sensor_id;sensor_type;location;lat;lon;timestamp;temperature;humidity
25302;DHT22;13243;50.888;4.724;2023-05-07T00:03:01;15.40;99.90
25302;DHT22;13243;50.888;4.724;2023-05-07T00:08:03;15.50;99.90
25302;DHT22;13243;50.888;4.724;2023-05-07T00:13:05;15.40;99.90
25302;DHT22;13243;50.888;4.724;2023-05-07T00:18:07;15.40;99.90
25302;DHT22;13243;50.888;4.724;2023-05-07T00:23:09;15.30;99.90
25302;DHT22;13243;50.888;4.724;2023-05-07T00:28:11;15.40;99.90
25302;DHT22;13243;50.888;4.724;2023-05-07T00:33:13;15.50;99.90
25302;DHT22;13243;50.888;4.724;2023-05-07T00:38:15;15.40;99.90
25302;DHT22;13243;50.888;4.724;2023-05-07T00:43:17;15.30;99.90
25302;DHT22;13243;50.888;4.724;2023-05-07T00:48:19;15.30;99.90
25302;DHT22;13243;50.888;4.724;2023-05-07T00:53:21;15.30;99.90
25302;DHT22;13243;50.888;4.724;2023-05-07T00:58:23;15.30;99.90
25302;DHT22;13243;50.888;4.724;2023-05-07T01:03:25;15.30;99.90
25302;DHT22;13243;50.888;4.724;2023-05-07T01:08:29;15.30;99.90
25302;DHT22;13243;50.888;4.724;2023-05-07T01:13:32;15.30;99.90
25302;DHT22;13243;50.888;4.724;2023-05-07T01:18:34;15.30;99.90
25302;DHT22;13243;50.888;4.724;2023-05-07T01:23:37;15.20;99.90
25302;DHT22;13243;50.888;4.724;2023-05-07T01:28:39;15.30;99.90
25302;DHT22;13243;50.888;4.724;2023-05-07T01:33:44;15.30;99.90
25302;DHT22;13243;50.888;4.724;2023-05-07T01:38:47;15.40;99.90
25302;DHT22;13243;50.888;4.724;2023-05-07T01:43:50;15.40;99.90
25302;DHT22;13243;50.888;4.724;2023-05-07T01:48:53;15.20;99.90
25302;DHT22;13243;50.888;4.724;2023-05-07T01:53:55;15.20;99.90
25302;DHT22;13243;50.888;4.724;2023-05-07T01:58:57;15.30;99.90
25302;DHT22;13243;50.888;4.724;2023-05-07T02:03:59;15.40;99.90
25302;DHT22;13243;50.888;4.724;2023-05-07T02:09:01;15.40;99.90
25302;DHT22;13243;50.888;4.724;2023-05-07T02:14:03;15.30;99.90
25302;DHT22;13243;50.888;4.724;2023-05-07T02:19:05;15.20;99.90
25302;DHT22;13243;50.888;4.724;2023-05-07T02:24:07;15.30;99.90
25302;DHT22;13243;50.888;4.724;2023-05-07T02:29:09;15.40;99.90
25302;DHT22;13243;50.888;4.724;2023-05-07T02:34:11;15.30;99.90
25302;DHT22;13243;50.888;4.724;2023-05-07T02:39:13;15.30;99.90
25302;DHT22;13243;50.888;4.724;2023-05-07T02:44:15;15.30;99.90
25302;DHT22;13243;50.888;4.724;2023-05-07T02:49:17;15.20;99.90
25302;DHT22;13243;50.888;4.724;2023-05-07T02:54:19;15.30;99.90
25302;DHT22;13243;50.888;4.724;2023-05-07T02:59:20;15.30;99.90
25302;DHT22;13243;50.888;4.724;2023-05-07T03:04:22;15.20;99.90
25302;DHT22;13243;50.888;4.724;2023-05-07T03:09:24;15.20;99.90
25302;DHT22;13243;50.888;4.724;2023-05-07T03:14:26;15.20;99.90
25302;DHT22;13243;50.888;4.724;2023-05-07T03:19:28;15.20;99.90
25302;DHT22;13243;50.888;4.724;2023-05-07T03:24:32;15.20;99.90
25302;DHT22;13243;50.888;4.724;2023-05-07T03:29:34;15.30;99.90
25302;DHT22;13243;50.888;4.724;2023-05-07T03:34:35;15.20;99.90
25302;DHT22;13243;50.888;4.724;2023-05-07T03:39:37;15.20;99.90
25302;DHT22;13243;50.888;4.724;2023-05-07T03:44:39;15.10;99.90
25302;DHT22;13243;50.888;4.724;2023-05-07T03:49:41;15.10;99.90
25302;DHT22;13243;50.888;4.724;2023-05-07T03:54:43;15.20;99.90
25302;DHT22;13243;50.888;4.724;2023-05-07T03:59:45;15.10;99.90
25302;DHT22;13243;50.888;4.724;2023-05-07T04:04:48;15.20;99.90
25302;DHT22;13243;50.888;4.724;2023-05-07T04:09:50;15.20;99.90
25302;DHT22;13243;50.888;4.724;2023-05-07T04:14:52;15.20;99.90
25302;DHT22;13243;50.888;4.724;2023-05-07T04:19:55;15.20;99.90
25302;DHT22;13243;50.888;4.724;2023-05-07T04:24:57;15.20;99.90
25302;DHT22;13243;50.888;4.724;2023-05-07T04:29:59;15.10;99.90
25302;DHT22;13243;50.888;4.724;2023-05-07T04:35:02;15.00;99.90
25302;DHT22;13243;50.888;4.724;2023-05-07T04:40:04;15.10;99.90
25302;DHT22;13243;50.888;4.724;2023-05-07T04:45:06;15.10;99.90
25302;DHT22;13243;50.888;4.724;2023-05-07T04:50:08;15.10;99.90
25302;DHT22;13243;50.888;4.724;2023-05-07T04:55:11;15.00;99.90
25302;DHT22;13243;50.888;4.724;2023-05-07T05:00:13;15.10;99.90
25302;DHT22;13243;50.888;4.724;2023-05-07T05:05:15;15.20;99.90
25302;DHT22;13243;50.888;4.724;2023-05-07T05:10:17;15.10;99.90
25302;DHT22;13243;50.888;4.724;2023-05-07T05:15:19;15.20;99.90
25302;DHT22;13243;50.888;4.724;2023-05-07T05:20:21;15.40;99.90
25302;DHT22;13243;50.888;4.724;2023-05-07T05:25:23;15.40;99.90
25302;DHT22;13243;50.888;4.724;2023-05-07T05:30:25;15.50;99.90
25302;DHT22;13243;50.888;4.724;2023-05-07T05:35:27;15.60;99.90
25302;DHT22;13243;50.888;4.724;2023-05-07T05:40:29;15.60;99.90
25302;DHT22;13243;50.888;4.724;2023-05-07T05:45:31;15.50;99.90
25302;DHT22;13243;50.888;4.724;2023-05-07T05:50:33;15.60;99.90
25302;DHT22;13243;50.888;4.724;2023-05-07T05:55:35;15.60;99.90
25302;DHT22;13243;50.888;4.724;2023-05-07T06:00:36;15.70;99.90
25302;DHT22;13243;50.888;4.724;2023-05-07T06:05:38;15.80;99.90
25302;DHT22;13243;50.888;4.724;2023-05-07T06:10:40;15.80;99.90
25302;DHT22;13243;50.888;4.724;2023-05-07T06:15:42;15.90;99.90
25302;DHT22;13243;50.888;4.724;2023-05-07T06:20:44;15.80;99.90
25302;DHT22;13243;50.888;4.724;2023-05-07T06:25:49;16.00;99.90
25302;DHT22;13243;50.888;4.724;2023-05-07T06:30:54;16.00;99.90
25302;DHT22;13243;50.888;4.724;2023-05-07T06:35:56;16.10;99.90
25302;DHT22;13243;50.888;4.724;2023-05-07T06:40:58;16.20;99.90
25302;DHT22;13243;50.888;4.724;2023-05-07T06:45:59;16.20;99.90
25302;DHT22;13243;50.888;4.724;2023-05-07T06:51:01;16.20;99.90
25302;DHT22;13243;50.888;4.724;2023-05-07T06:56:03;15.90;99.90
25302;DHT22;13243;50.888;4.724;2023-05-07T07:01:05;15.90;99.90
25302;DHT22;13243;50.888;4.724;2023-05-07T07:06:07;16.00;99.90
25302;DHT22;13243;50.888;4.724;2023-05-07T07:11:10;16.00;99.90
25302;DHT22;13243;50.888;4.724;2023-05-07T07:16:12;16.00;99.90
25302;DHT22;13243;50.888;4.724;2023-05-07T07:21:14;16.10;99.90
25302;DHT22;13243;50.888;4.724;2023-05-07T07:26:17;16.30;99.90
25302;DHT22;13243;50.888;4.724;2023-05-07T07:31:18;16.30;99.90
25302;DHT22;13243;50.888;4.724;2023-05-07T07:36:20;16.50;99.90
25302;DHT22;13243;50.888;4.724;2023-05-07T07:41:24;16.60;99.90
25302;DHT22;13243;50.888;4.724;2023-05-07T07:46:26;16.80;99.90
25302;DHT22;13243;50.888;4.724;2023-05-07T07:51:28;16.90;99.90
25302;DHT22;13243;50.888;4.724;2023-05-07T07:56:32;16.90;99.90
25302;DHT22;13243;50.888;4.724;2023-05-07T08:01:35;17.00;99.90
25302;DHT22;13243;50.888;4.724;2023-05-07T08:06:37;17.10;99.90
25302;DHT22;13243;50.888;4.724;2023-05-07T08:11:39;17.00;99.90
25302;DHT22;13243;50.888;4.724;2023-05-07T08:16:41;17.00;99.90
25302;DHT22;13243;50.888;4.724;2023-05-07T08:21:43;17.00;99.90
25302;DHT22;13243;50.888;4.724;2023-05-07T08:26:45;17.20;99.90
25302;DHT22;13243;50.888;4.724;2023-05-07T08:31:48;17.00;99.90
25302;DHT22;13243;50.888;4.724;2023-05-07T08:36:50;16.80;99.90
25302;DHT22;13243;50.888;4.724;2023-05-07T08:41:55;16.90;99.90
25302;DHT22;13243;50.888;4.724;2023-05-07T08:46:59;16.80;99.90
25302;DHT22;13243;50.888;4.724;2023-05-07T08:52:02;16.90;99.90
25302;DHT22;13243;50.888;4.724;2023-05-07T08:57:04;16.70;99.90
25302;DHT22;13243;50.888;4.724;2023-05-07T09:02:07;16.80;99.90
25302;DHT22;13243;50.888;4.724;2023-05-07T09:07:11;16.80;99.90
25302;DHT22;13243;50.888;4.724;2023-05-07T09:12:12;16.90;99.90
25302;DHT22;13243;50.888;4.724;2023-05-07T09:17:17;16.90;99.90
25302;DHT22;13243;50.888;4.724;2023-05-07T09:22:20;17.10;99.90
25302;DHT22;13243;50.888;4.724;2023-05-07T09:27:22;16.90;99.90
25302;DHT22;13243;50.888;4.724;2023-05-07T09:32:25;16.90;99.90
25302;DHT22;13243;50.888;4.724;2023-05-07T09:37:30;17.10;99.90
25302;DHT22;13243;50.888;4.724;2023-05-07T09:42:33;17.00;99.90
25302;DHT22;13243;50.888;4.724;2023-05-07T09:47:37;17.10;99.90
25302;DHT22;13243;50.888;4.724;2023-05-07T09:52:40;17.30;99.90
25302;DHT22;13243;50.888;4.724;2023-05-07T09:57:43;17.20;99.90
25302;DHT22;13243;50.888;4.724;2023-05-07T10:02:47;17.20;99.90
25302;DHT22;13243;50.888;4.724;2023-05-07T10:07:51;17.40;99.90
25302;DHT22;13243;50.888;4.724;2023-05-07T10:12:54;17.30;99.90
25302;DHT22;13243;50.888;4.724;2023-05-07T10:17:57;17.30;99.90
25302;DHT22;13243;50.888;4.724;2023-05-07T10:23:00;17.10;99.90
25302;DHT22;13243;50.888;4.724;2023-05-07T10:28:07;17.10;99.90
25302;DHT22;13243;50.888;4.724;2023-05-07T10:33:12;17.10;99.90
25302;DHT22;13243;50.888;4.724;2023-05-07T10:38:15;17.30;99.90
25302;DHT22;13243;50.888;4.724;2023-05-07T10:43:17;17.40;99.90
25302;DHT22;13243;50.888;4.724;2023-05-07T10:48:19;17.30;99.90
25302;DHT22;13243;50.888;4.724;2023-05-07T10:53:24;17.60;99.90
25302;DHT22;13243;50.888;4.724;2023-05-07T10:58:28;17.60;99.90
25302;DHT22;13243;50.888;4.724;2023-05-07T11:03:33;17.50;99.90
25302;DHT22;13243;50.888;4.724;2023-05-07T11:08:57;17.50;99.90
25302;DHT22;13243;50.888;4.724;2023-05-07T11:13:59;17.60;99.90
25302;DHT22;13243;50.888;4.724;2023-05-07T11:19:00;17.70;99.90
25302;DHT22;13243;50.888;4.724;2023-05-07T11:24:05;17.80;99.90
25302;DHT22;13243;50.888;4.724;2023-05-07T11:29:11;17.70;99.90
25302;DHT22;13243;50.888;4.724;2023-05-07T11:34:14;17.70;99.90
25302;DHT22;13243;50.888;4.724;2023-05-07T11:39:24;17.40;99.90
25302;DHT22;13243;50.888;4.724;2023-05-07T11:44:41;17.60;99.90
25302;DHT22;13243;50.888;4.724;2023-05-07T11:49:42;17.80;99.90
25302;DHT22;13243;50.888;4.724;2023-05-07T11:54:53;17.80;99.90
25302;DHT22;13243;50.888;4.724;2023-05-07T11:59:57;17.80;99.90
25302;DHT22;13243;50.888;4.724;2023-05-07T12:05:00;17.90;99.90
25302;DHT22;13243;50.888;4.724;2023-05-07T12:10:05;18.00;99.90
25302;DHT22;13243;50.888;4.724;2023-05-07T12:15:08;18.10;99.90
25302;DHT22;13243;50.888;4.724;2023-05-07T12:20:11;18.30;99.90
25302;DHT22;13243;50.888;4.724;2023-05-07T12:25:19;18.30;99.90
25302;DHT22;13243;50.888;4.724;2023-05-07T12:30:21;18.20;99.90
25302;DHT22;13243;50.888;4.724;2023-05-07T12:35:31;18.10;99.90
25302;DHT22;13243;50.888;4.724;2023-05-07T12:40:59;18.00;99.90
25302;DHT22;13243;50.888;4.724;2023-05-07T12:46:04;18.10;99.90
25302;DHT22;13243;50.888;4.724;2023-05-07T12:51:06;18.20;99.90
25302;DHT22;13243;50.888;4.724;2023-05-07T12:56:09;18.30;99.90
25302;DHT22;13243;50.888;4.724;2023-05-07T13:01:11;18.40;99.90
25302;DHT22;13243;50.888;4.724;2023-05-07T13:06:17;18.40;99.90
25302;DHT22;13243;50.888;4.724;2023-05-07T13:11:19;18.30;99.90
25302;DHT22;13243;50.888;4.724;2023-05-07T13:16:21;18.50;99.90
25302;DHT22;13243;50.888;4.724;2023-05-07T13:21:23;18.50;99.90
25302;DHT22;13243;50.888;4.724;2023-05-07T13:26:25;18.60;99.90
25302;DHT22;13243;50.888;4.724;2023-05-07T13:31:28;18.50;99.90
25302;DHT22;13243;50.888;4.724;2023-05-07T13:36:29;18.60;99.90
25302;DHT22;13243;50.888;4.724;2023-05-07T13:41:34;18.40;99.90
25302;DHT22;13243;50.888;4.724;2023-05-07T13:46:36;18.60;99.90
25302;DHT22;13243;50.888;4.724;2023-05-07T13:51:38;18.60;99.90
25302;DHT22;13243;50.888;4.724;2023-05-07T13:56:40;18.60;99.90
25302;DHT22;13243;50.888;4.724;2023-05-07T14:01:42;18.60;99.90
25302;DHT22;13243;50.888;4.724;2023-05-07T14:06:44;18.60;99.90
25302;DHT22;13243;50.888;4.724;2023-05-07T14:11:46;18.60;99.90
25302;DHT22;13243;50.888;4.724;2023-05-07T14:16:49;18.60;99.90
25302;DHT22;13243;50.888;4.724;2023-05-07T14:21:51;18.60;99.90
25302;DHT22;13243;50.888;4.724;2023-05-07T14:26:53;18.60;99.90
25302;DHT22;13243;50.888;4.724;2023-05-07T14:31:55;18.60;99.90
25302;DHT22;13243;50.888;4.724;2023-05-07T14:36:58;18.70;99.90
25302;DHT22;13243;50.888;4.724;2023-05-07T14:41:59;18.60;99.90
25302;DHT22;13243;50.888;4.724;2023-05-07T14:47:01;18.50;99.90
25302;DHT22;13243;50.888;4.724;2023-05-07T14:52:03;18.60;99.90
25302;DHT22;13243;50.888;4.724;2023-05-07T14:57:08;18.60;99.90
25302;DHT22;13243;50.888;4.724;2023-05-07T15:02:11;18.50;99.90
25302;DHT22;13243;50.888;4.724;2023-05-07T15:07:15;18.60;99.90
25302;DHT22;13243;50.888;4.724;2023-05-07T15:12:17;18.50;99.90
25302;DHT22;13243;50.888;4.724;2023-05-07T15:17:18;18.60;99.90
25302;DHT22;13243;50.888;4.724;2023-05-07T15:22:20;18.60;99.90
25302;DHT22;13243;50.888;4.724;2023-05-07T15:27:23;18.50;99.90
25302;DHT22;13243;50.888;4.724;2023-05-07T15:32:25;18.50;99.90
25302;DHT22;13243;50.888;4.724;2023-05-07T15:37:27;18.50;99.90
25302;DHT22;13243;50.888;4.724;2023-05-07T15:42:29;18.50;99.90
25302;DHT22;13243;50.888;4.724;2023-05-07T15:47:32;18.50;99.90
25302;DHT22;13243;50.888;4.724;2023-05-07T15:52:36;18.60;99.90
25302;DHT22;13243;50.888;4.724;2023-05-07T15:57:38;18.50;99.90
25302;DHT22;13243;50.888;4.724;2023-05-07T16:02:39;18.40;99.90
25302;DHT22;13243;50.888;4.724;2023-05-07T16:07:41;18.30;99.90
25302;DHT22;13243;50.888;4.724;2023-05-07T16:12:44;18.40;99.90
25302;DHT22;13243;50.888;4.724;2023-05-07T16:17:47;18.30;99.90
25302;DHT22;13243;50.888;4.724;2023-05-07T16:22:50;18.30;99.90
25302;DHT22;13243;50.888;4.724;2023-05-07T16:27:52;18.30;99.90
25302;DHT22;13243;50.888;4.724;2023-05-07T16:32:55;18.30;99.90
25302;DHT22;13243;50.888;4.724;2023-05-07T16:37:57;18.30;99.90
25302;DHT22;13243;50.888;4.724;2023-05-07T16:42:59;18.30;99.90
25302;DHT22;13243;50.888;4.724;2023-05-07T16:48:01;18.20;99.90
25302;DHT22;13243;50.888;4.724;2023-05-07T16:53:04;18.20;99.90
25302;DHT22;13243;50.888;4.724;2023-05-07T16:58:10;18.30;99.90
25302;DHT22;13243;50.888;4.724;2023-05-07T17:03:12;18.40;99.90
25302;DHT22;13243;50.888;4.724;2023-05-07T17:08:14;18.30;99.90
25302;DHT22;13243;50.888;4.724;2023-05-07T17:13:15;18.20;99.90
25302;DHT22;13243;50.888;4.724;2023-05-07T17:18:17;18.30;99.90
25302;DHT22;13243;50.888;4.724;2023-05-07T17:23:19;18.20;99.90
25302;DHT22;13243;50.888;4.724;2023-05-07T17:28:21;18.30;99.90
25302;DHT22;13243;50.888;4.724;2023-05-07T17:33:23;18.10;99.90
25302;DHT22;13243;50.888;4.724;2023-05-07T17:38:25;18.20;99.90
25302;DHT22;13243;50.888;4.724;2023-05-07T17:43:27;18.10;99.90
25302;DHT22;13243;50.888;4.724;2023-05-07T17:48:29;18.10;99.90
25302;DHT22;13243;50.888;4.724;2023-05-07T17:53:31;18.20;99.90
25302;DHT22;13243;50.888;4.724;2023-05-07T17:58:33;18.10;99.90
25302;DHT22;13243;50.888;4.724;2023-05-07T18:03:55;18.00;99.90
25302;DHT22;13243;50.888;4.724;2023-05-07T18:08:57;18.10;99.90
25302;DHT22;13243;50.888;4.724;2023-05-07T18:13:59;18.10;99.90
25302;DHT22;13243;50.888;4.724;2023-05-07T18:19:01;18.00;99.90
25302;DHT22;13243;50.888;4.724;2023-05-07T18:24:03;18.00;99.90
25302;DHT22;13243;50.888;4.724;2023-05-07T18:29:05;18.00;99.90
25302;DHT22;13243;50.888;4.724;2023-05-07T18:34:08;17.80;99.90
25302;DHT22;13243;50.888;4.724;2023-05-07T18:39:10;17.80;99.90
25302;DHT22;13243;50.888;4.724;2023-05-07T18:44:13;17.80;99.90
25302;DHT22;13243;50.888;4.724;2023-05-07T18:49:14;17.80;99.90
25302;DHT22;13243;50.888;4.724;2023-05-07T18:54:16;17.80;99.90
25302;DHT22;13243;50.888;4.724;2023-05-07T18:59:18;17.70;99.90
25302;DHT22;13243;50.888;4.724;2023-05-07T19:04:20;17.70;99.90
25302;DHT22;13243;50.888;4.724;2023-05-07T19:09:22;17.60;99.90
25302;DHT22;13243;50.888;4.724;2023-05-07T19:14:24;17.50;99.90
25302;DHT22;13243;50.888;4.724;2023-05-07T19:19:26;17.50;99.90
25302;DHT22;13243;50.888;4.724;2023-05-07T19:24:28;17.30;99.90
25302;DHT22;13243;50.888;4.724;2023-05-07T19:29:30;17.30;99.90
25302;DHT22;13243;50.888;4.724;2023-05-07T19:34:32;17.30;99.90
25302;DHT22;13243;50.888;4.724;2023-05-07T19:39:33;17.40;99.90
25302;DHT22;13243;50.888;4.724;2023-05-07T19:44:35;17.30;99.90
25302;DHT22;13243;50.888;4.724;2023-05-07T19:49:37;17.30;99.90
25302;DHT22;13243;50.888;4.724;2023-05-07T19:54:39;17.30;99.90
25302;DHT22;13243;50.888;4.724;2023-05-07T19:59:41;17.10;99.90
25302;DHT22;13243;50.888;4.724;2023-05-07T20:04:43;17.20;99.90
25302;DHT22;13243;50.888;4.724;2023-05-07T20:09:45;17.10;99.90
25302;DHT22;13243;50.888;4.724;2023-05-07T20:14:46;16.90;99.90
25302;DHT22;13243;50.888;4.724;2023-05-07T20:19:48;16.70;99.90
25302;DHT22;13243;50.888;4.724;2023-05-07T20:24:50;16.50;99.90
25302;DHT22;13243;50.888;4.724;2023-05-07T20:29:52;16.40;99.90
25302;DHT22;13243;50.888;4.724;2023-05-07T20:34:54;16.30;99.90
25302;DHT22;13243;50.888;4.724;2023-05-07T20:39:56;16.30;99.90
25302;DHT22;13243;50.888;4.724;2023-05-07T20:44:58;16.20;99.90
25302;DHT22;13243;50.888;4.724;2023-05-07T20:50:03;16.20;99.90
25302;DHT22;13243;50.888;4.724;2023-05-07T20:55:05;16.20;99.90
25302;DHT22;13243;50.888;4.724;2023-05-07T21:00:08;16.30;99.90
25302;DHT22;13243;50.888;4.724;2023-05-07T21:05:10;16.30;99.90
25302;DHT22;13243;50.888;4.724;2023-05-07T21:10:12;16.30;99.90
25302;DHT22;13243;50.888;4.724;2023-05-07T21:15:14;16.30;99.90
25302;DHT22;13243;50.888;4.724;2023-05-07T21:20:16;16.30;99.90
25302;DHT22;13243;50.888;4.724;2023-05-07T21:25:18;16.50;99.90
25302;DHT22;13243;50.888;4.724;2023-05-07T21:30:20;16.50;99.90
25302;DHT22;13243;50.888;4.724;2023-05-07T21:35:22;16.50;99.90
25302;DHT22;13243;50.888;4.724;2023-05-07T21:40:23;16.50;99.90
25302;DHT22;13243;50.888;4.724;2023-05-07T21:45:25;16.50;99.90
25302;DHT22;13243;50.888;4.724;2023-05-07T21:50:27;16.40;99.90
25302;DHT22;13243;50.888;4.724;2023-05-07T21:55:29;16.30;99.90
25302;DHT22;13243;50.888;4.724;2023-05-07T22:00:31;16.30;99.90
25302;DHT22;13243;50.888;4.724;2023-05-07T22:05:33;16.30;99.90
25302;DHT22;13243;50.888;4.724;2023-05-07T22:10:36;16.10;99.90
25302;DHT22;13243;50.888;4.724;2023-05-07T22:15:38;16.00;99.90
25302;DHT22;13243;50.888;4.724;2023-05-07T22:20:57;15.90;99.90
25302;DHT22;13243;50.888;4.724;2023-05-07T22:25:59;15.80;99.90
25302;DHT22;13243;50.888;4.724;2023-05-07T22:31:01;15.90;99.90
25302;DHT22;13243;50.888;4.724;2023-05-07T22:36:03;15.70;99.90
25302;DHT22;13243;50.888;4.724;2023-05-07T22:41:05;15.60;99.90
25302;DHT22;13243;50.888;4.724;2023-05-07T22:46:07;15.60;99.90
25302;DHT22;13243;50.888;4.724;2023-05-07T22:51:12;15.50;99.90
25302;DHT22;13243;50.888;4.724;2023-05-07T22:56:15;15.50;99.90
25302;DHT22;13243;50.888;4.724;2023-05-07T23:01:17;15.40;99.90
25302;DHT22;13243;50.888;4.724;2023-05-07T23:06:19;15.40;99.90
25302;DHT22;13243;50.888;4.724;2023-05-07T23:11:21;15.20;99.90
25302;DHT22;13243;50.888;4.724;2023-05-07T23:16:23;15.10;99.90
25302;DHT22;13243;50.888;4.724;2023-05-07T23:21:26;15.00;99.90
25302;DHT22;13243;50.888;4.724;2023-05-07T23:26:28;14.90;99.90
25302;DHT22;13243;50.888;4.724;2023-05-07T23:31:30;14.90;99.90
25302;DHT22;13243;50.888;4.724;2023-05-07T23:36:32;14.90;99.90
25302;DHT22;13243;50.888;4.724;2023-05-07T23:41:34;15.20;99.90
25302;DHT22;13243;50.888;4.724;2023-05-07T23:46:36;15.30;99.90
25302;DHT22;13243;50.888;4.724;2023-05-07T23:51:38;15.30;99.90
25302;DHT22;13243;50.888;4.724;2023-05-07T23:56:40;15.40;99.90
